Aeroporto :
LOGIN :

Iscrizione | Disclaimer

   EN    FR    IT 

 










Sommario :    VFR   VFR Marginale   IFR   IFR Intensivo   IFR Molto Intensivo
Visibilità : 
Base nubi : 
>= 8 km
>= 3000ft
5 / 8 km
1000 / 3000 ft
1500m / 5 km
500 / 1000 ft
800 / 1500m
200 / 500 ft
< 800m
< 200 ft
Simboli :   Temporali  Nebbia  Neve Forte  Precipitazioni Forti  Vento > 20 kt
SIGMETs :   Varie  Temporali  Ghiacco  Turbolenza  Onda orograficha  Ceneri Vulcaniche






- Altitudine del aeroporto : 160 ft
- Codice IATA : LRT


LFRH - Lorient Lann Bihoue

ULTIMO METAR :
  • 140230Z AUTO 27009KT 9999 BKN012 BKN084 OVC100 17/16 Q1015

METARs OBSOLETI :
  • 140200Z AUTO 28008KT 9999 OVC012 17/16 Q1015
  • 140130Z AUTO 27009KT 9999 BKN009 OVC013 17/16 Q1015
  • 140100Z AUTO 28009KT 6000 -RA BKN008 BKN015 OVC021 17/16 Q1015
  • 140030Z AUTO 27009KT 240V300 9999 BKN007 OVC014 17/16 Q1015
  • 140000Z AUTO 27008KT 9999 BKN008 OVC013 17/16 Q1015

Previsioni scadute.



MetMap, La meteo Aeronautica in un colpo d'occhio ! - Copyright ORBIFLY Dicembre 2007 - Disclaimer

ORBIFLY MET'MAP TEAM :

Programmazione e sviluppo : Alexandra Zaïnal
Concezione : Baudouin d'Aumeries
Aiuto per la programmazione : Marc-Olivier Méhu
Supporto tecnico e logistico : Manuel Goepfert
Aiuto per la traduzione : Arnaldo La Scala

Contatto : metmap@orbifly.com




FONTI E CREDITI :

   NOAA